Time,TemperatureF,DewpointF,PressureIn,WindDirection,WindDirectionDegrees,WindSpeedMPH,WindSpeedGustMPH,Humidity,HourlyPrecipIn,Conditions,Clouds,dailyrainin,SoftwareType,DateUTC
2013-01-15 00:00:00,27.1,7.6,30.26,SSE,168,3.0,4.0,43,0.00,,,0.00,WeatherCatV1.11B39,2013-01-15 05:00:00,
2013-01-15 00:05:00,27.3,7.8,30.26,SSE,159,2.0,4.0,43,0.00,,,0.00,WeatherCatV1.11B39,2013-01-15 05:05:00,
2013-01-15 00:15:00,26.3,7.4,30.25,SSW,193,4.0,6.0,44,0.00,,,0.00,WeatherCatV1.11B39,2013-01-15 05:15:00,
2013-01-15 00:18:00,27.3,6.7,30.26,South,182,2.0,5.0,41,0.00,,,0.00,WeatherCatV1.11B39,2013-01-15 05:18:00,
2013-01-15 00:20:00,26.5,7.6,30.25,South,187,4.0,4.0,44,0.00,,,0.00,WeatherCatV1.11B39,2013-01-15 05:20:00,
2013-01-15 00:25:00,26.8,7.3,30.25,SSE,168,3.0,4.0,43,0.00,,,0.00,WeatherCatV1.11B39,2013-01-15 05:25:00,
2013-01-15 00:30:00,27.2,8.2,30.26,SSE,162,3.0,5.0,44,0.00,,,0.00,WeatherCatV1.11B39,2013-01-15 05:30:00,
2013-01-15 00:35:00,27.4,7.9,30.26,SSE,163,2.0,3.0,43,0.00,,,0.00,WeatherCatV1.11B39,2013-01-15 05:35:00,
2013-01-15 00:45:00,26.3,7.4,30.25,SSW,193,4.0,6.0,44,0.00,,,0.00,WeatherCatV1.11B39,2013-01-15 05:45:00,
2013-01-15 00:48:00,27.2,6.7,30.26,South,178,2.0,6.0,41,0.00,,,0.00,WeatherCatV1.11B39,2013-01-15 05:48:00,
2013-01-15 00:50:00,26.5,7.6,30.25,South,187,4.0,4.0,44,0.00,,,0.00,WeatherCatV1.11B39,2013-01-15 05:50:00,
2013-01-15 00:55:00,26.8,7.3,30.25,SSE,168,3.0,4.0,43,0.00,,,0.00,WeatherCatV1.11B39,2013-01-15 05:55:00,
2013-01-15 01:00:00,27.2,8.2,30.26,SSE,162,3.0,5.0,44,0.00,,,0.00,WeatherCatV1.11B39,2013-01-15 06:00:00,
2013-01-15 01:05:00,27.4,7.9,30.26,SSE,163,2.0,3.0,43,0.00,,,0.00,WeatherCatV1.11B39,2013-01-15 06:05:00,
2013-01-15 01:15:00,26.3,7.4,30.25,SSW,193,4.0,6.0,44,0.00,,,0.00,WeatherCatV1.11B39,2013-01-15 06:15:00,
2013-01-15 01:17:00,27.2,6.7,30.26,South,178,2.0,6.0,41,0.00,,,0.00,WeatherCatV1.11B39,2013-01-15 06:17:00,
2013-01-15 01:20:00,26.5,7.6,30.25,South,187,4.0,4.0,44,0.00,,,0.00,WeatherCatV1.11B39,2013-01-15 06:20:00,
2013-01-15 01:25:00,26.8,7.3,30.25,SSE,168,3.0,4.0,43,0.00,,,0.00,WeatherCatV1.11B39,2013-01-15 06:25:00,
2013-01-15 01:30:00,27.2,8.2,30.26,SSE,162,3.0,5.0,44,0.00,,,0.00,WeatherCatV1.11B39,2013-01-15 06:30:00,
2013-01-15 01:35:00,27.4,7.9,30.26,SSE,163,2.0,3.0,43,0.00,,,0.00,WeatherCatV1.11B39,2013-01-15 06:35:00,
2013-01-15 01:45:00,26.3,7.4,30.25,SSW,193,4.0,6.0,44,0.00,,,0.00,WeatherCatV1.11B39,2013-01-15 06:45:00,
2013-01-15 01:47:00,27.2,6.7,30.26,South,178,2.0,6.0,41,0.00,,,0.00,WeatherCatV1.11B39,2013-01-15 06:47:00,
2013-01-15 01:50:00,26.5,7.6,30.25,South,187,4.0,4.0,44,0.00,,,0.00,WeatherCatV1.11B39,2013-01-15 06:50:00,
2013-01-15 01:55:00,26.8,7.3,30.25,SSE,168,3.0,4.0,43,0.00,,,0.00,WeatherCatV1.11B39,2013-01-15 06:55:00,
2013-01-15 02:00:00,27.2,8.2,30.26,SSE,162,3.0,5.0,44,0.00,,,0.00,WeatherCatV1.11B39,2013-01-15 07:00:00,
2013-01-15 02:05:00,27.4,7.9,30.26,SSE,163,2.0,3.0,43,0.00,,,0.00,WeatherCatV1.11B39,2013-01-15 07:05:00,
2013-01-15 02:15:00,26.3,7.4,30.25,SSW,193,4.0,6.0,44,0.00,,,0.00,WeatherCatV1.11B39,2013-01-15 07:15:00,
2013-01-15 02:17:00,27.2,6.7,30.26,South,178,2.0,6.0,41,0.00,,,0.00,WeatherCatV1.11B39,2013-01-15 07:17:00,
2013-01-15 02:20:00,26.5,7.6,30.25,South,187,4.0,4.0,44,0.00,,,0.00,WeatherCatV1.11B39,2013-01-15 07:20:00,
2013-01-15 02:25:00,26.8,7.3,30.25,SSE,168,3.0,4.0,43,0.00,,,0.00,WeatherCatV1.11B39,2013-01-15 07:25:00,
2013-01-15 02:30:00,27.2,8.2,30.26,SSE,162,3.0,5.0,44,0.00,,,0.00,WeatherCatV1.11B39,2013-01-15 07:30:00,
2013-01-15 02:35:00,27.4,7.9,30.26,SSE,163,2.0,3.0,43,0.00,,,0.00,WeatherCatV1.11B39,2013-01-15 07:35:00,
2013-01-15 02:45:00,26.3,7.4,30.25,SSW,193,4.0,6.0,44,0.00,,,0.00,WeatherCatV1.11B39,2013-01-15 07:45:00,
2013-01-15 02:47:00,27.2,6.7,30.26,South,178,2.0,6.0,41,0.00,,,0.00,WeatherCatV1.11B39,2013-01-15 07:47:00,
2013-01-15 02:50:00,26.5,7.6,30.25,South,187,4.0,4.0,44,0.00,,,0.00,WeatherCatV1.11B39,2013-01-15 07:50:00,
2013-01-15 02:55:00,26.8,7.3,30.25,SSE,168,3.0,4.0,43,0.00,,,0.00,WeatherCatV1.11B39,2013-01-15 07:55:00,
2013-01-15 03:00:00,27.2,8.2,30.26,SSE,162,3.0,5.0,44,0.00,,,0.00,WeatherCatV1.11B39,2013-01-15 08:00:00,
2013-01-15 03:05:00,27.4,7.9,30.26,SSE,163,2.0,3.0,43,0.00,,,0.00,WeatherCatV1.11B39,2013-01-15 08:05:00,
2013-01-15 03:10:00,26.4,8.5,30.25,SSW,192,4.0,9.0,46,0.00,,,0.00,WeatherCatV1.11B39,2013-01-15 08:10:00,
2013-01-15 03:15:00,26.3,7.4,30.25,South,189,4.0,6.0,44,0.00,,,0.00,WeatherCatV1.11B39,2013-01-15 08:15:00,
2013-01-15 03:17:00,27.2,6.7,30.26,South,178,2.0,6.0,41,0.00,,,0.00,WeatherCatV1.11B39,2013-01-15 08:17:00,
2013-01-15 03:20:00,26.5,7.6,30.25,South,187,4.0,4.0,44,0.00,,,0.00,WeatherCatV1.11B39,2013-01-15 08:20:00,
2013-01-15 03:25:00,26.8,7.3,30.25,SSE,168,3.0,4.0,43,0.00,,,0.00,WeatherCatV1.11B39,2013-01-15 08:25:00,
2013-01-15 03:30:00,27.2,8.2,30.26,SSE,162,3.0,5.0,44,0.00,,,0.00,WeatherCatV1.11B39,2013-01-15 08:30:00,
2013-01-15 03:35:00,27.4,7.9,30.26,SSE,163,2.0,3.0,43,0.00,,,0.00,WeatherCatV1.11B39,2013-01-15 08:35:00,
2013-01-15 03:40:00,26.4,8.5,30.25,SSW,192,4.0,9.0,46,0.00,,,0.00,WeatherCatV1.11B39,2013-01-15 08:40:00,
2013-01-15 03:45:00,26.3,7.4,30.25,South,189,4.0,6.0,44,0.00,,,0.00,WeatherCatV1.11B39,2013-01-15 08:45:00,
2013-01-15 03:47:00,27.2,6.7,30.26,South,178,2.0,6.0,41,0.00,,,0.00,WeatherCatV1.11B39,2013-01-15 08:47:00,
2013-01-15 03:50:00,26.5,7.1,30.25,South,182,4.0,5.0,43,0.00,,,0.00,WeatherCatV1.11B39,2013-01-15 08:50:00,
2013-01-15 03:55:00,26.9,7.9,30.25,SSE,164,3.0,5.0,44,0.00,,,0.00,WeatherCatV1.11B39,2013-01-15 08:55:00,
2013-01-15 04:00:00,27.2,8.2,30.26,SSE,162,3.0,5.0,44,0.00,,,0.00,WeatherCatV1.11B39,2013-01-15 09:00:00,
2013-01-15 04:05:00,27.4,7.9,30.26,SSE,163,2.0,3.0,43,0.00,,,0.00,WeatherCatV1.11B39,2013-01-15 09:05:00,
2013-01-15 04:10:00,26.4,8.5,30.25,SSW,192,4.0,9.0,46,0.00,,,0.00,WeatherCatV1.11B39,2013-01-15 09:10:00,
2013-01-15 04:15:00,26.3,7.4,30.25,South,189,4.0,6.0,44,0.00,,,0.00,WeatherCatV1.11B39,2013-01-15 09:15:00,
2013-01-15 04:17:00,27.2,6.7,30.26,South,178,2.0,6.0,41,0.00,,,0.00,WeatherCatV1.11B39,2013-01-15 09:17:00,
2013-01-15 04:20:00,26.5,7.1,30.25,South,182,4.0,5.0,43,0.00,,,0.00,WeatherCatV1.11B39,2013-01-15 09:20:00,
2013-01-15 04:25:00,26.9,7.9,30.25,SSE,164,3.0,5.0,44,0.00,,,0.00,WeatherCatV1.11B39,2013-01-15 09:25:00,
2013-01-15 04:30:00,27.2,8.2,30.26,SSE,162,3.0,5.0,44,0.00,,,0.00,WeatherCatV1.11B39,2013-01-15 09:30:00,
2013-01-15 04:35:00,27.4,7.4,30.26,SSE,167,2.0,6.0,42,0.00,,,0.00,WeatherCatV1.11B39,2013-01-15 09:35:00,
2013-01-15 04:40:00,26.4,8.5,30.25,SSW,192,4.0,9.0,46,0.00,,,0.00,WeatherCatV1.11B39,2013-01-15 09:40:00,
2013-01-15 04:45:00,26.3,7.4,30.25,South,189,4.0,6.0,44,0.00,,,0.00,WeatherCatV1.11B39,2013-01-15 09:45:00,
2013-01-15 04:46:00,27.2,7.7,30.26,South,177,2.0,5.0,43,0.00,,,0.00,WeatherCatV1.11B39,2013-01-15 09:46:00,
2013-01-15 04:50:00,26.5,7.1,30.25,South,182,4.0,5.0,43,0.00,,,0.00,WeatherCatV1.11B39,2013-01-15 09:50:00,
2013-01-15 04:55:00,26.9,7.9,30.25,SSE,164,3.0,5.0,44,0.00,,,0.00,WeatherCatV1.11B39,2013-01-15 09:55:00,
2013-01-15 05:00:00,27.2,8.2,30.26,SSE,162,3.0,5.0,44,0.00,,,0.00,WeatherCatV1.11B39,2013-01-15 10:00:00,
2013-01-15 05:05:00,27.4,7.4,30.26,SSE,167,2.0,6.0,42,0.00,,,0.00,WeatherCatV1.11B39,2013-01-15 10:05:00,
2013-01-15 05:10:00,26.4,8.5,30.25,SSW,192,4.0,9.0,46,0.00,,,0.00,WeatherCatV1.11B39,2013-01-15 10:10:00,
2013-01-15 05:15:00,26.3,7.4,30.25,South,189,4.0,6.0,44,0.00,,,0.00,WeatherCatV1.11B39,2013-01-15 10:15:00,
2013-01-15 05:16:00,27.2,7.7,30.26,South,177,2.0,5.0,43,0.00,,,0.00,WeatherCatV1.11B39,2013-01-15 10:16:00,
2013-01-15 05:20:00,26.5,7.1,30.25,South,182,4.0,5.0,43,0.00,,,0.00,WeatherCatV1.11B39,2013-01-15 10:20:00,
2013-01-15 05:25:00,26.9,7.9,30.25,SSE,164,3.0,5.0,44,0.00,,,0.00,WeatherCatV1.11B39,2013-01-15 10:25:00,
2013-01-15 05:30:00,27.2,8.2,30.26,SSE,162,3.0,5.0,44,0.00,,,0.00,WeatherCatV1.11B39,2013-01-15 10:30:00,
2013-01-15 05:35:00,27.4,7.4,30.26,SSE,167,2.0,6.0,42,0.00,,,0.00,WeatherCatV1.11B39,2013-01-15 10:35:00,
2013-01-15 05:40:00,26.4,8.5,30.25,SSW,192,4.0,9.0,46,0.00,,,0.00,WeatherCatV1.11B39,2013-01-15 10:40:00,
2013-01-15 05:45:00,26.3,7.4,30.25,South,189,4.0,6.0,44,0.00,,,0.00,WeatherCatV1.11B39,2013-01-15 10:45:00,
2013-01-15 05:46:00,27.2,7.7,30.26,South,177,2.0,5.0,43,0.00,,,0.00,WeatherCatV1.11B39,2013-01-15 10:46:00,
2013-01-15 05:50:00,26.5,7.1,30.25,South,182,4.0,5.0,43,0.00,,,0.00,WeatherCatV1.11B39,2013-01-15 10:50:00,
2013-01-15 05:55:00,26.9,7.9,30.25,SSE,164,3.0,5.0,44,0.00,,,0.00,WeatherCatV1.11B39,2013-01-15 10:55:00,
2013-01-15 06:00:00,27.2,8.2,30.26,SSE,162,3.0,5.0,44,0.00,,,0.00,WeatherCatV1.11B39,2013-01-15 11:00:00,
2013-01-15 06:05:00,27.4,7.4,30.26,SSE,167,2.0,6.0,42,0.00,,,0.00,WeatherCatV1.11B39,2013-01-15 11:05:00,
2013-01-15 06:10:00,26.4,8.5,30.25,SSW,192,4.0,9.0,46,0.00,,,0.00,WeatherCatV1.11B39,2013-01-15 11:10:00,
2013-01-15 06:15:00,26.3,7.4,30.25,South,189,4.0,6.0,44,0.00,,,0.00,WeatherCatV1.11B39,2013-01-15 11:15:00,
2013-01-15 06:16:00,27.2,7.7,30.26,South,177,2.0,5.0,43,0.00,,,0.00,WeatherCatV1.11B39,2013-01-15 11:16:00,
2013-01-15 06:20:00,26.5,7.1,30.25,South,182,4.0,5.0,43,0.00,,,0.00,WeatherCatV1.11B39,2013-01-15 11:20:00,
2013-01-15 06:25:00,26.9,7.9,30.25,SSE,164,3.0,5.0,44,0.00,,,0.00,WeatherCatV1.11B39,2013-01-15 11:25:00,
2013-01-15 06:30:00,27.2,8.2,30.26,SSE,162,3.0,5.0,44,0.00,,,0.00,WeatherCatV1.11B39,2013-01-15 11:30:00,
2013-01-15 06:35:00,27.4,7.4,30.26,SSE,167,2.0,6.0,42,0.00,,,0.00,WeatherCatV1.11B39,2013-01-15 11:35:00,
2013-01-15 06:40:00,26.4,8.5,30.25,SSW,192,4.0,9.0,46,0.00,,,0.00,WeatherCatV1.11B39,2013-01-15 11:40:00,
2013-01-15 06:45:00,26.3,7.4,30.25,South,189,4.0,6.0,44,0.00,,,0.00,WeatherCatV1.11B39,2013-01-15 11:45:00,
2013-01-15 06:46:00,27.2,7.7,30.26,South,177,2.0,5.0,43,0.00,,,0.00,WeatherCatV1.11B39,2013-01-15 11:46:00,
2013-01-15 06:50:00,26.5,7.1,30.25,South,182,4.0,5.0,43,0.00,,,0.00,WeatherCatV1.11B39,2013-01-15 11:50:00,
2013-01-15 06:55:00,26.9,7.9,30.25,SSE,164,3.0,5.0,44,0.00,,,0.00,WeatherCatV1.11B39,2013-01-15 11:55:00,
2013-01-15 07:00:00,27.2,8.2,30.26,SSE,162,3.0,5.0,44,0.00,,,0.00,WeatherCatV1.11B39,2013-01-15 12:00:00,
2013-01-15 07:05:00,27.4,7.4,30.26,SSE,167,2.0,6.0,42,0.00,,,0.00,WeatherCatV1.11B39,2013-01-15 12:05:00,
2013-01-15 07:15:00,26.2,7.3,30.25,South,191,4.0,9.0,44,0.00,,,0.00,WeatherCatV1.11B39,2013-01-15 12:15:00,
2013-01-15 07:16:00,27.2,7.7,30.26,South,177,2.0,5.0,43,0.00,,,0.00,WeatherCatV1.11B39,2013-01-15 12:16:00,
2013-01-15 07:20:00,26.4,8.0,30.25,South,188,4.0,5.0,45,0.00,,,0.00,WeatherCatV1.11B39,2013-01-15 12:20:00,
2013-01-15 07:25:00,26.8,7.3,30.25,SSE,168,3.0,4.0,43,0.00,,,0.00,WeatherCatV1.11B39,2013-01-15 12:25:00,
2013-01-15 07:30:00,27.1,7.6,30.26,SSE,168,3.0,4.0,43,0.00,,,0.00,WeatherCatV1.11B39,2013-01-15 12:30:00,
2013-01-15 07:35:00,27.3,7.8,30.26,SSE,159,2.0,4.0,43,0.00,,,0.00,WeatherCatV1.11B39,2013-01-15 12:35:00,
2013-01-15 07:45:00,26.3,7.4,30.25,SSW,193,4.0,6.0,44,0.00,,,0.00,WeatherCatV1.11B39,2013-01-15 12:45:00,
2013-01-15 07:48:00,27.3,6.7,30.26,South,182,2.0,5.0,41,0.00,,,0.00,WeatherCatV1.11B39,2013-01-15 12:48:00,
2013-01-15 07:50:00,26.5,7.6,30.25,South,187,4.0,4.0,44,0.00,,,0.00,WeatherCatV1.11B39,2013-01-15 12:50:00,
2013-01-15 07:55:00,26.8,7.3,30.25,SSE,168,3.0,4.0,43,0.00,,,0.00,WeatherCatV1.11B39,2013-01-15 12:55:00,
2013-01-15 08:00:00,27.1,7.6,30.26,SSE,168,3.0,4.0,43,0.00,,,0.00,WeatherCatV1.11B39,2013-01-15 13:00:00,
2013-01-15 08:05:00,27.3,7.8,30.26,SSE,159,2.0,4.0,43,0.00,,,0.00,WeatherCatV1.11B39,2013-01-15 13:05:00,
2013-01-15 08:15:00,26.3,7.4,30.25,SSW,193,4.0,6.0,44,0.00,,,0.00,WeatherCatV1.11B39,2013-01-15 13:15:00,
2013-01-15 08:18:00,27.3,6.7,30.26,South,182,2.0,5.0,41,0.00,,,0.00,WeatherCatV1.11B39,2013-01-15 13:18:00,
2013-01-15 08:20:00,26.5,7.6,30.25,South,187,4.0,4.0,44,0.00,,,0.00,WeatherCatV1.11B39,2013-01-15 13:20:00,
2013-01-15 08:25:00,26.8,7.3,30.25,SSE,168,3.0,4.0,43,0.00,,,0.00,WeatherCatV1.11B39,2013-01-15 13:25:00,
2013-01-15 08:30:00,27.2,8.2,30.26,SSE,162,3.0,5.0,44,0.00,,,0.00,WeatherCatV1.11B39,2013-01-15 13:30:00,
2013-01-15 08:35:00,27.4,7.9,30.26,SSE,163,2.0,3.0,43,0.00,,,0.00,WeatherCatV1.11B39,2013-01-15 13:35:00,
2013-01-15 08:45:00,26.3,7.4,30.25,SSW,193,4.0,6.0,44,0.00,,,0.00,WeatherCatV1.11B39,2013-01-15 13:45:00,
2013-01-15 08:48:00,27.2,6.7,30.26,South,178,2.0,6.0,41,0.00,,,0.00,WeatherCatV1.11B39,2013-01-15 13:48:00,
2013-01-15 08:50:00,26.5,7.6,30.25,South,187,4.0,4.0,44,0.00,,,0.00,WeatherCatV1.11B39,2013-01-15 13:50:00,
2013-01-15 08:55:00,26.8,7.3,30.25,SSE,168,3.0,4.0,43,0.00,,,0.00,WeatherCatV1.11B39,2013-01-15 13:55:00,
2013-01-15 09:00:00,27.2,8.2,30.26,SSE,162,3.0,5.0,44,0.00,,,0.00,WeatherCatV1.11B39,2013-01-15 14:00:00,
2013-01-15 09:05:00,27.4,7.9,30.26,SSE,163,2.0,3.0,43,0.00,,,0.00,WeatherCatV1.11B39,2013-01-15 14:05:00,
2013-01-15 09:15:00,26.3,7.4,30.25,SSW,193,4.0,6.0,44,0.00,,,0.00,WeatherCatV1.11B39,2013-01-15 14:15:00,
2013-01-15 09:17:00,27.2,6.7,30.26,South,178,2.0,6.0,41,0.00,,,0.00,WeatherCatV1.11B39,2013-01-15 14:17:00,
2013-01-15 09:20:00,26.5,7.6,30.25,South,187,4.0,4.0,44,0.00,,,0.00,WeatherCatV1.11B39,2013-01-15 14:20:00,
2013-01-15 09:25:00,26.8,7.3,30.25,SSE,168,3.0,4.0,43,0.00,,,0.00,WeatherCatV1.11B39,2013-01-15 14:25:00,
2013-01-15 09:30:00,27.2,8.2,30.26,SSE,162,3.0,5.0,44,0.00,,,0.00,WeatherCatV1.11B39,2013-01-15 14:30:00,
2013-01-15 09:35:00,27.4,7.9,30.26,SSE,163,2.0,3.0,43,0.00,,,0.00,WeatherCatV1.11B39,2013-01-15 14:35:00,
2013-01-15 09:45:00,26.3,7.4,30.25,SSW,193,4.0,6.0,44,0.00,,,0.00,WeatherCatV1.11B39,2013-01-15 14:45:00,
2013-01-15 09:47:00,27.2,6.7,30.26,South,178,2.0,6.0,41,0.00,,,0.00,WeatherCatV1.11B39,2013-01-15 14:47:00,
2013-01-15 09:50:00,26.5,7.6,30.25,South,187,4.0,4.0,44,0.00,,,0.00,WeatherCatV1.11B39,2013-01-15 14:50:00,
2013-01-15 09:55:00,26.8,7.3,30.25,SSE,168,3.0,4.0,43,0.00,,,0.00,WeatherCatV1.11B39,2013-01-15 14:55:00,
2013-01-15 10:00:00,27.2,8.2,30.26,SSE,162,3.0,5.0,44,0.00,,,0.00,WeatherCatV1.11B39,2013-01-15 15:00:00,
2013-01-15 10:05:00,27.4,7.9,30.26,SSE,163,2.0,3.0,43,0.00,,,0.00,WeatherCatV1.11B39,2013-01-15 15:05:00,
2013-01-15 10:15:00,26.3,7.4,30.25,SSW,193,4.0,6.0,44,0.00,,,0.00,WeatherCatV1.11B39,2013-01-15 15:15:00,
2013-01-15 10:17:00,27.2,6.7,30.26,South,178,2.0,6.0,41,0.00,,,0.00,WeatherCatV1.11B39,2013-01-15 15:17:00,
2013-01-15 10:20:00,26.5,7.6,30.25,South,187,4.0,4.0,44,0.00,,,0.00,WeatherCatV1.11B39,2013-01-15 15:20:00,
2013-01-15 10:25:00,26.8,7.3,30.25,SSE,168,3.0,4.0,43,0.00,,,0.00,WeatherCatV1.11B39,2013-01-15 15:25:00,
2013-01-15 10:30:00,27.2,8.2,30.26,SSE,162,3.0,5.0,44,0.00,,,0.00,WeatherCatV1.11B39,2013-01-15 15:30:00,
2013-01-15 10:35:00,27.4,7.9,30.26,SSE,163,2.0,3.0,43,0.00,,,0.00,WeatherCatV1.11B39,2013-01-15 15:35:00,
2013-01-15 10:45:00,26.3,7.4,30.25,SSW,193,4.0,6.0,44,0.00,,,0.00,WeatherCatV1.11B39,2013-01-15 15:45:00,
2013-01-15 10:47:00,27.2,6.7,30.26,South,178,2.0,6.0,41,0.00,,,0.00,WeatherCatV1.11B39,2013-01-15 15:47:00,
2013-01-15 10:50:00,26.5,7.6,30.25,South,187,4.0,4.0,44,0.00,,,0.00,WeatherCatV1.11B39,2013-01-15 15:50:00,
2013-01-15 10:55:00,26.8,7.3,30.25,SSE,168,3.0,4.0,43,0.00,,,0.00,WeatherCatV1.11B39,2013-01-15 15:55:00,
2013-01-15 11:00:00,27.2,8.2,30.26,SSE,162,3.0,5.0,44,0.00,,,0.00,WeatherCatV1.11B39,2013-01-15 16:00:00,
2013-01-15 11:05:00,27.4,7.9,30.26,SSE,163,2.0,3.0,43,0.00,,,0.00,WeatherCatV1.11B39,2013-01-15 16:05:00,
2013-01-15 11:10:00,26.4,8.5,30.25,SSW,192,4.0,9.0,46,0.00,,,0.00,WeatherCatV1.11B39,2013-01-15 16:10:00,
2013-01-15 11:15:00,26.3,7.4,30.25,South,189,4.0,6.0,44,0.00,,,0.00,WeatherCatV1.11B39,2013-01-15 16:15:00,
2013-01-15 11:17:00,27.2,6.7,30.26,South,178,2.0,6.0,41,0.00,,,0.00,WeatherCatV1.11B39,2013-01-15 16:17:00,
2013-01-15 11:20:00,26.5,7.6,30.25,South,187,4.0,4.0,44,0.00,,,0.00,WeatherCatV1.11B39,2013-01-15 16:20:00,
2013-01-15 11:25:00,26.8,7.3,30.25,SSE,168,3.0,4.0,43,0.00,,,0.00,WeatherCatV1.11B39,2013-01-15 16:25:00,
2013-01-15 11:30:00,27.2,8.2,30.26,SSE,162,3.0,5.0,44,0.00,,,0.00,WeatherCatV1.11B39,2013-01-15 16:30:00,
2013-01-15 11:35:00,27.4,7.9,30.26,SSE,163,2.0,3.0,43,0.00,,,0.00,WeatherCatV1.11B39,2013-01-15 16:35:00,
2013-01-15 11:40:00,26.4,8.5,30.25,SSW,192,4.0,9.0,46,0.00,,,0.00,WeatherCatV1.11B39,2013-01-15 16:40:00,
2013-01-15 11:45:00,26.3,7.4,30.25,South,189,4.0,6.0,44,0.00,,,0.00,WeatherCatV1.11B39,2013-01-15 16:45:00,
2013-01-15 11:47:00,27.2,6.7,30.26,South,178,2.0,6.0,41,0.00,,,0.00,WeatherCatV1.11B39,2013-01-15 16:47:00,
2013-01-15 11:50:00,26.5,7.1,30.25,South,182,4.0,5.0,43,0.00,,,0.00,WeatherCatV1.11B39,2013-01-15 16:50:00,
2013-01-15 11:55:00,26.9,7.9,30.25,SSE,164,3.0,5.0,44,0.00,,,0.00,WeatherCatV1.11B39,2013-01-15 16:55:00,
2013-01-15 12:00:00,27.2,8.2,30.26,SSE,162,3.0,5.0,44,0.00,,,0.00,WeatherCatV1.11B39,2013-01-15 17:00:00,
2013-01-15 12:05:00,27.4,7.9,30.26,SSE,163,2.0,3.0,43,0.00,,,0.00,WeatherCatV1.11B39,2013-01-15 17:05:00,
2013-01-15 12:10:00,26.4,8.5,30.25,SSW,192,4.0,9.0,46,0.00,,,0.00,WeatherCatV1.11B39,2013-01-15 17:10:00,
2013-01-15 12:15:00,26.3,7.4,30.25,South,189,4.0,6.0,44,0.00,,,0.00,WeatherCatV1.11B39,2013-01-15 17:15:00,
2013-01-15 12:17:00,27.2,6.7,30.26,South,178,2.0,6.0,41,0.00,,,0.00,WeatherCatV1.11B39,2013-01-15 17:17:00,
2013-01-15 12:20:00,26.5,7.1,30.25,South,182,4.0,5.0,43,0.00,,,0.00,WeatherCatV1.11B39,2013-01-15 17:20:00,
2013-01-15 12:25:00,26.9,7.9,30.25,SSE,164,3.0,5.0,44,0.00,,,0.00,WeatherCatV1.11B39,2013-01-15 17:25:00,
2013-01-15 12:30:00,27.2,8.2,30.26,SSE,162,3.0,5.0,44,0.00,,,0.00,WeatherCatV1.11B39,2013-01-15 17:30:00,
2013-01-15 12:35:00,27.4,7.4,30.26,SSE,167,2.0,6.0,42,0.00,,,0.00,WeatherCatV1.11B39,2013-01-15 17:35:00,
2013-01-15 12:40:00,26.4,8.5,30.25,SSW,192,4.0,9.0,46,0.00,,,0.00,WeatherCatV1.11B39,2013-01-15 17:40:00,
2013-01-15 12:45:00,26.3,7.4,30.25,South,189,4.0,6.0,44,0.00,,,0.00,WeatherCatV1.11B39,2013-01-15 17:45:00,
2013-01-15 12:47:00,27.2,6.7,30.26,South,178,2.0,6.0,41,0.00,,,0.00,WeatherCatV1.11B39,2013-01-15 17:47:00,
2013-01-15 12:50:00,26.5,7.1,30.25,South,182,4.0,5.0,43,0.00,,,0.00,WeatherCatV1.11B39,2013-01-15 17:50:00,
2013-01-15 12:55:00,26.9,7.9,30.25,SSE,164,3.0,5.0,44,0.00,,,0.00,WeatherCatV1.11B39,2013-01-15 17:55:00,
2013-01-15 13:00:00,27.2,8.2,30.26,SSE,162,3.0,5.0,44,0.00,,,0.00,WeatherCatV1.11B39,2013-01-15 18:00:00,
2013-01-15 13:05:00,27.4,7.4,30.26,SSE,167,2.0,6.0,42,0.00,,,0.00,WeatherCatV1.11B39,2013-01-15 18:05:00,
2013-01-15 13:10:00,26.4,8.5,30.25,SSW,192,4.0,9.0,46,0.00,,,0.00,WeatherCatV1.11B39,2013-01-15 18:10:00,
2013-01-15 13:15:00,26.3,7.4,30.25,South,189,4.0,6.0,44,0.00,,,0.00,WeatherCatV1.11B39,2013-01-15 18:15:00,
2013-01-15 13:16:00,27.2,7.7,30.26,South,177,2.0,5.0,43,0.00,,,0.00,WeatherCatV1.11B39,2013-01-15 18:16:00,
2013-01-15 13:20:00,26.5,7.1,30.25,South,182,4.0,5.0,43,0.00,,,0.00,WeatherCatV1.11B39,2013-01-15 18:20:00,
2013-01-15 13:25:00,26.9,7.9,30.25,SSE,164,3.0,5.0,44,0.00,,,0.00,WeatherCatV1.11B39,2013-01-15 18:25:00,
2013-01-15 13:30:00,27.2,8.2,30.26,SSE,162,3.0,5.0,44,0.00,,,0.00,WeatherCatV1.11B39,2013-01-15 18:30:00,
2013-01-15 13:35:00,27.4,7.4,30.26,SSE,167,2.0,6.0,42,0.00,,,0.00,WeatherCatV1.11B39,2013-01-15 18:35:00,
2013-01-15 13:46:00,27.2,7.7,30.26,South,177,2.0,5.0,43,0.00,,,0.00,WeatherCatV1.11B39,2013-01-15 18:46:00,
2013-01-15 13:54:00,35.2,18.9,30.21,WNW,288,1.0,6.0,51,0.00,,,0.00,WeatherCatV1.11B39,2013-01-15 18:54:00,
2013-01-15 13:59:00,35.4,19.1,30.21,SW,227,3.0,5.0,51,0.00,,,0.00,WeatherCatV1.11B39,2013-01-15 18:59:00,
2013-01-15 14:04:00,35.5,18.7,30.22,SW,216,1.0,5.0,50,0.00,,,0.00,WeatherCatV1.11B39,2013-01-15 19:04:00,
2013-01-15 14:09:00,35.3,18.5,30.22,West,259,2.0,4.0,50,0.00,,,0.00,WeatherCatV1.11B39,2013-01-15 19:09:00,
2013-01-15 14:14:00,35.3,19.5,30.22,WSW,257,1.0,3.0,52,0.00,,,0.00,WeatherCatV1.11B39,2013-01-15 19:14:00,
2013-01-15 14:19:00,35.5,19.2,30.22,SW,221,3.0,3.0,51,0.00,,,0.00,WeatherCatV1.11B39,2013-01-15 19:19:00,
2013-01-15 14:24:00,35.3,18.5,30.22,South,178,4.0,5.0,50,0.00,,,0.00,WeatherCatV1.11B39,2013-01-15 19:24:00,
2013-01-15 14:29:00,35.3,19.0,30.22,WSW,252,3.0,5.0,51,0.00,,,0.00,WeatherCatV1.11B39,2013-01-15 19:29:00,
2013-01-15 14:34:00,35.2,18.4,30.22,SSW,203,5.0,7.0,50,0.00,,,0.00,WeatherCatV1.11B39,2013-01-15 19:34:00,
2013-01-15 14:39:00,34.9,18.6,30.22,SSW,202,0.0,8.0,51,0.00,,,0.00,WeatherCatV1.11B39,2013-01-15 19:39:00,
2013-01-15 14:44:00,34.5,18.7,30.22,SSW,199,1.0,5.0,52,0.00,,,0.00,WeatherCatV1.11B39,2013-01-15 19:44:00,
2013-01-15 14:49:00,34.6,18.4,30.22,WSW,244,3.0,6.0,51,0.00,,,0.00,WeatherCatV1.11B39,2013-01-15 19:49:00,
2013-01-15 14:54:00,35.0,19.6,30.22,WSW,246,4.0,4.0,53,0.00,,,0.00,WeatherCatV1.11B39,2013-01-15 19:54:00,
2013-01-15 14:59:00,34.9,18.6,30.22,SSW,210,3.0,6.0,51,0.00,,,0.00,WeatherCatV1.11B39,2013-01-15 19:59:00,
2013-01-15 15:04:00,35.0,19.6,30.21,West,275,3.0,4.0,53,0.00,,,0.00,WeatherCatV1.11B39,2013-01-15 20:04:00,
2013-01-15 15:09:00,34.7,18.4,30.21,SW,221,2.0,6.0,51,0.00,,,0.00,WeatherCatV1.11B39,2013-01-15 20:09:00,
2013-01-15 15:14:00,34.4,18.2,30.22,SSE,149,0.0,5.0,51,0.00,,,0.00,WeatherCatV1.11B39,2013-01-15 20:14:00,
2013-01-15 15:19:00,34.1,17.9,30.22,SSW,203,1.0,7.0,51,0.00,,,0.00,WeatherCatV1.11B39,2013-01-15 20:19:00,
2013-01-15 15:24:00,33.9,18.6,30.22,SSW,206,2.0,4.0,53,0.00,,,0.00,WeatherCatV1.11B39,2013-01-15 20:24:00,
2013-01-15 15:29:00,33.6,18.8,30.21,SE,128,5.0,7.0,54,0.00,,,0.00,WeatherCatV1.11B39,2013-01-15 20:29:00,
2013-01-15 15:34:00,33.1,18.3,30.21,SW,215,2.0,3.0,54,0.00,,,0.00,WeatherCatV1.11B39,2013-01-15 20:34:00,
2013-01-15 15:39:00,32.5,17.7,30.21,SSW,210,0.0,4.0,54,0.00,,,0.00,WeatherCatV1.11B39,2013-01-15 20:39:00,
2013-01-15 15:44:00,32.0,18.5,30.21,South,187,0.0,2.0,57,0.00,,,0.00,WeatherCatV1.11B39,2013-01-15 20:44:00,
2013-01-15 15:49:00,31.6,19.3,30.21,SW,217,0.0,0.0,60,0.00,,,0.00,WeatherCatV1.11B39,2013-01-15 20:49:00,
2013-01-15 15:54:00,31.3,18.3,30.21,WSW,250,1.0,2.0,58,0.00,,,0.00,WeatherCatV1.11B39,2013-01-15 20:54:00,
2013-01-15 15:59:00,31.1,18.5,30.21,WSW,255,0.0,3.0,59,0.00,,,0.00,WeatherCatV1.11B39,2013-01-15 20:59:00,
2013-01-15 16:04:00,30.9,18.7,30.22,NNW,342,3.0,3.0,60,0.00,,,0.00,WeatherCatV1.11B39,2013-01-15 21:04:00,
2013-01-15 16:09:00,30.7,18.1,30.23,SSW,197,2.0,4.0,59,0.00,,,0.00,WeatherCatV1.11B39,2013-01-15 21:09:00,
2013-01-15 16:14:00,30.5,18.3,30.23,SSW,202,2.0,4.0,60,0.00,,,0.00,WeatherCatV1.11B39,2013-01-15 21:14:00,
2013-01-15 16:19:00,30.4,18.2,30.23,SSW,196,0.0,3.0,60,0.00,,,0.00,WeatherCatV1.11B39,2013-01-15 21:19:00,
2013-01-15 16:24:00,30.3,18.1,30.22,SW,234,0.0,1.0,60,0.00,,,0.00,WeatherCatV1.11B39,2013-01-15 21:24:00,
2013-01-15 16:29:00,30.1,18.3,30.23,SSW,192,0.0,1.0,61,0.00,,,0.00,WeatherCatV1.11B39,2013-01-15 21:29:00,
2013-01-15 16:34:00,29.9,18.5,30.24,ENE,57,0.0,1.0,62,0.00,,,0.00,WeatherCatV1.11B39,2013-01-15 21:34:00,
2013-01-15 16:39:00,29.7,18.3,30.23,ENE,58,0.0,1.0,62,0.00,,,0.00,WeatherCatV1.11B39,2013-01-15 21:39:00,
2013-01-15 16:44:00,29.6,18.6,30.23,SSE,148,0.0,2.0,63,0.00,,,0.00,WeatherCatV1.11B39,2013-01-15 21:44:00,
2013-01-15 16:49:00,29.4,18.8,30.24,SSE,150,0.0,0.0,64,0.00,,,0.00,WeatherCatV1.11B39,2013-01-15 21:49:00,
2013-01-15 16:54:00,29.3,18.7,30.24,SSE,150,0.0,0.0,64,0.00,,,0.00,WeatherCatV1.11B39,2013-01-15 21:54:00,
2013-01-15 16:59:00,29.2,18.2,30.24,WSW,258,0.0,4.0,63,0.00,,,0.00,WeatherCatV1.11B39,2013-01-15 21:59:00,
2013-01-15 17:04:00,29.1,18.8,30.24,SSW,206,0.0,2.0,65,0.00,,,0.00,WeatherCatV1.11B39,2013-01-15 22:04:00,
2013-01-15 17:09:00,28.8,18.5,30.24,SSE,155,0.0,0.0,65,0.00,,,0.00,WeatherCatV1.11B39,2013-01-15 22:09:00,
2013-01-15 17:14:00,28.8,18.2,30.24,SSE,155,0.0,0.0,64,0.00,,,0.00,WeatherCatV1.11B39,2013-01-15 22:14:00,
2013-01-15 17:20:00,28.7,18.1,30.25,East,90,0.0,1.0,64,0.00,,,0.00,WeatherCatV1.11B39,2013-01-15 22:20:00,
2013-01-15 17:25:00,28.6,18.7,30.25,SSE,149,1.0,1.0,66,0.00,,,0.00,WeatherCatV1.11B39,2013-01-15 22:25:00,
2013-01-15 17:30:00,28.5,17.9,30.25,WSW,253,0.0,0.0,64,0.00,,,0.00,WeatherCatV1.11B39,2013-01-15 22:30:00,
2013-01-15 17:35:00,28.4,17.8,30.25,SE,130,0.0,4.0,64,0.00,,,0.00,WeatherCatV1.11B39,2013-01-15 22:35:00,
2013-01-15 17:40:00,28.3,17.7,30.25,SE,144,0.0,0.0,64,0.00,,,0.00,WeatherCatV1.11B39,2013-01-15 22:40:00,
2013-01-15 17:44:00,28.2,17.2,30.25,SE,144,0.0,0.0,63,0.00,,,0.00,WeatherCatV1.11B39,2013-01-15 22:44:00,
2013-01-15 17:49:00,28.0,18.5,30.25,SE,144,0.0,0.0,67,0.00,,,0.00,WeatherCatV1.11B39,2013-01-15 22:49:00,
2013-01-15 17:54:00,27.9,19.1,30.25,SE,144,0.0,0.0,69,0.00,,,0.00,WeatherCatV1.11B39,2013-01-15 22:54:00,
2013-01-15 17:59:00,27.7,18.5,30.25,SE,144,0.0,0.0,68,0.00,,,0.00,WeatherCatV1.11B39,2013-01-15 22:59:00,
2013-01-15 18:04:00,27.5,18.0,30.26,SE,144,0.0,0.0,67,0.00,,,0.00,WeatherCatV1.11B39,2013-01-15 23:04:00,
2013-01-15 18:09:00,27.5,18.3,30.26,SE,144,0.0,0.0,68,0.00,,,0.00,WeatherCatV1.11B39,2013-01-15 23:09:00,
2013-01-15 18:15:00,27.5,18.3,30.26,SE,144,0.0,0.0,68,0.00,,,0.00,WeatherCatV1.11B39,2013-01-15 23:15:00,
2013-01-15 18:20:00,27.4,17.9,30.27,SE,133,0.0,3.0,67,0.00,,,0.00,WeatherCatV1.11B39,2013-01-15 23:20:00,
2013-01-15 18:25:00,27.2,17.7,30.27,SW,226,2.0,3.0,67,0.00,,,0.00,WeatherCatV1.11B39,2013-01-15 23:25:00,
2013-01-15 18:30:00,27.2,17.7,30.27,SSW,196,0.0,2.0,67,0.00,,,0.00,WeatherCatV1.11B39,2013-01-15 23:30:00,
2013-01-15 18:35:00,27.1,18.0,30.27,SSW,198,0.0,0.0,68,0.00,,,0.00,WeatherCatV1.11B39,2013-01-15 23:35:00,
2013-01-15 18:40:00,27.0,17.9,30.27,SSW,198,0.0,0.0,68,0.00,,,0.00,WeatherCatV1.11B39,2013-01-15 23:40:00,
2013-01-15 18:45:00,27.0,17.9,30.26,SSW,198,0.0,0.0,68,0.00,,,0.00,WeatherCatV1.11B39,2013-01-15 23:45:00,
2013-01-15 18:50:00,26.8,18.4,30.27,SSW,198,0.0,0.0,70,0.00,,,0.00,WeatherCatV1.11B39,2013-01-15 23:50:00,
2013-01-15 18:55:00,26.6,18.2,30.27,SSW,198,0.0,0.0,70,0.00,,,0.00,WeatherCatV1.11B39,2013-01-15 23:55:00,
2013-01-15 19:00:00,26.4,18.0,30.26,SSW,198,0.0,0.0,70,0.00,,,0.00,WeatherCatV1.11B39,2013-01-16 00:00:00,
2013-01-15 19:05:00,26.5,17.4,30.27,SSW,198,0.0,0.0,68,0.00,,,0.00,WeatherCatV1.11B39,2013-01-16 00:05:00,
2013-01-15 19:10:00,26.4,18.0,30.27,SSW,198,0.0,0.0,70,0.00,,,0.00,WeatherCatV1.11B39,2013-01-16 00:10:00,
2013-01-15 19:15:00,26.3,17.9,30.27,SSW,198,0.0,0.0,70,0.00,,,0.00,WeatherCatV1.11B39,2013-01-16 00:15:00,
2013-01-15 19:20:00,26.3,18.2,30.27,SSW,198,0.0,0.0,71,0.00,,,0.00,WeatherCatV1.11B39,2013-01-16 00:20:00,
2013-01-15 19:25:00,26.3,18.2,30.27,SSW,198,0.0,0.0,71,0.00,,,0.00,WeatherCatV1.11B39,2013-01-16 00:25:00,
2013-01-15 19:30:00,26.3,18.2,30.26,SSW,198,0.0,0.0,71,0.00,,,0.00,WeatherCatV1.11B39,2013-01-16 00:30:00,
2013-01-15 19:35:00,26.3,18.2,30.26,SSW,198,0.0,0.0,71,0.00,,,0.00,WeatherCatV1.11B39,2013-01-16 00:35:00,
2013-01-15 19:40:00,26.1,18.3,30.26,SSW,198,0.0,0.0,72,0.00,,,0.00,WeatherCatV1.11B39,2013-01-16 00:40:00,
2013-01-15 19:45:00,26.0,18.2,30.26,SSW,198,0.0,0.0,72,0.00,,,0.00,WeatherCatV1.11B39,2013-01-16 00:45:00,
2013-01-15 19:50:00,25.8,18.4,30.27,SSW,198,0.0,0.0,73,0.00,,,0.00,WeatherCatV1.11B39,2013-01-16 00:50:00,
2013-01-15 19:55:00,25.7,18.3,30.26,SSW,198,0.0,0.0,73,0.00,,,0.00,WeatherCatV1.11B39,2013-01-16 00:55:00,
2013-01-15 20:00:00,25.7,18.3,30.26,SSW,198,0.0,0.0,73,0.00,,,0.00,WeatherCatV1.11B39,2013-01-16 01:00:00,
2013-01-15 20:05:00,25.8,18.4,30.25,SSW,198,0.0,0.0,73,0.00,,,0.00,WeatherCatV1.11B39,2013-01-16 01:05:00,
2013-01-15 20:10:00,25.8,18.4,30.24,SSW,198,0.0,0.0,73,0.00,,,0.00,WeatherCatV1.11B39,2013-01-16 01:10:00,
2013-01-15 20:15:00,25.8,18.7,30.25,SSW,198,0.0,0.0,74,0.00,,,0.00,WeatherCatV1.11B39,2013-01-16 01:15:00,
2013-01-15 20:20:00,25.7,18.9,30.24,SSW,198,0.0,0.0,75,0.00,,,0.00,WeatherCatV1.11B39,2013-01-16 01:20:00,
2013-01-15 20:25:00,25.7,18.6,30.24,SSW,198,0.0,0.0,74,0.00,,,0.00,WeatherCatV1.11B39,2013-01-16 01:25:00,
2013-01-15 20:30:00,25.7,18.6,30.24,SSW,198,0.0,0.0,74,0.00,,,0.00,WeatherCatV1.11B39,2013-01-16 01:30:00,
2013-01-15 20:35:00,25.7,18.9,30.25,SSW,198,0.0,0.0,75,0.00,,,0.00,WeatherCatV1.11B39,2013-01-16 01:35:00,
2013-01-15 20:40:00,25.7,18.9,30.24,SSW,198,0.0,0.0,75,0.00,,,0.00,WeatherCatV1.11B39,2013-01-16 01:40:00,
2013-01-15 20:45:00,25.7,18.9,30.24,SSW,198,0.0,0.0,75,0.00,,,0.00,WeatherCatV1.11B39,2013-01-16 01:45:00,
2013-01-15 20:50:00,25.7,18.9,30.25,SSW,198,0.0,0.0,75,0.00,,,0.00,WeatherCatV1.11B39,2013-01-16 01:50:00,
2013-01-15 20:55:00,25.6,18.5,30.25,SSW,198,0.0,0.0,74,0.00,,,0.00,WeatherCatV1.11B39,2013-01-16 01:55:00,
2013-01-15 21:00:00,25.7,17.9,30.24,SSW,198,0.0,0.0,72,0.00,,,0.00,WeatherCatV1.11B39,2013-01-16 02:00:00,
2013-01-15 21:05:00,25.7,17.9,30.24,SSW,198,0.0,0.0,72,0.00,,,0.00,WeatherCatV1.11B39,2013-01-16 02:05:00,
2013-01-15 21:10:00,25.8,18.4,30.24,SSW,198,0.0,0.0,73,0.00,,,0.00,WeatherCatV1.11B39,2013-01-16 02:10:00,
2013-01-15 21:15:00,25.8,18.4,30.24,SSW,198,0.0,0.0,73,0.00,,,0.00,WeatherCatV1.11B39,2013-01-16 02:15:00,
2013-01-15 21:20:00,25.7,18.9,30.24,SSW,198,0.0,0.0,75,0.00,,,0.00,WeatherCatV1.11B39,2013-01-16 02:20:00,
2013-01-15 21:25:00,25.7,18.9,30.24,SSW,198,0.0,0.0,75,0.00,,,0.00,WeatherCatV1.11B39,2013-01-16 02:25:00,
2013-01-15 21:30:00,25.8,19.0,30.24,SSW,198,0.0,0.0,75,0.00,,,0.00,WeatherCatV1.11B39,2013-01-16 02:30:00,
2013-01-15 21:35:00,25.8,19.0,30.23,SSW,198,0.0,0.0,75,0.00,,,0.00,WeatherCatV1.11B39,2013-01-16 02:35:00,
2013-01-15 21:40:00,25.8,19.0,30.23,SSW,198,0.0,0.0,75,0.00,,,0.00,WeatherCatV1.11B39,2013-01-16 02:40:00,
2013-01-15 21:45:00,25.8,18.7,30.23,SSW,198,0.0,0.0,74,0.00,,,0.00,WeatherCatV1.11B39,2013-01-16 02:45:00,
2013-01-15 21:50:00,25.7,18.6,30.22,SSW,198,0.0,0.0,74,0.00,,,0.00,WeatherCatV1.11B39,2013-01-16 02:50:00,
2013-01-15 21:55:00,25.6,18.8,30.23,SSW,198,0.0,0.0,75,0.00,,,0.00,WeatherCatV1.11B39,2013-01-16 02:55:00,
2013-01-15 22:00:00,25.6,18.8,30.22,SSW,198,0.0,0.0,75,0.00,,,0.00,WeatherCatV1.11B39,2013-01-16 03:00:00,
2013-01-15 22:05:00,25.5,18.7,30.23,SSW,198,0.0,0.0,75,0.00,,,0.00,WeatherCatV1.11B39,2013-01-16 03:05:00,
2013-01-15 22:10:00,25.4,18.6,30.22,SSW,198,0.0,0.0,75,0.00,,,0.00,WeatherCatV1.11B39,2013-01-16 03:10:00,
2013-01-15 22:15:00,25.4,18.6,30.22,SSW,198,0.0,0.0,75,0.00,,,0.00,WeatherCatV1.11B39,2013-01-16 03:15:00,
2013-01-15 22:20:00,25.4,18.6,30.23,SSW,198,0.0,0.0,75,0.00,,,0.00,WeatherCatV1.11B39,2013-01-16 03:20:00,
2013-01-15 22:25:00,25.5,19.0,30.22,SSW,198,0.0,0.0,76,0.00,,,0.00,WeatherCatV1.11B39,2013-01-16 03:25:00,
2013-01-15 22:30:00,25.6,19.1,30.22,SSW,198,0.0,0.0,76,0.00,,,0.00,WeatherCatV1.11B39,2013-01-16 03:30:00,
2013-01-15 22:35:00,25.6,19.1,30.22,SSW,198,0.0,0.0,76,0.00,,,0.00,WeatherCatV1.11B39,2013-01-16 03:35:00,
2013-01-15 22:40:00,25.7,18.9,30.22,SSW,198,0.0,0.0,75,0.00,,,0.00,WeatherCatV1.11B39,2013-01-16 03:40:00,
2013-01-15 22:45:00,25.8,19.3,30.21,SSW,198,0.0,0.0,76,0.00,,,0.00,WeatherCatV1.11B39,2013-01-16 03:45:00,
2013-01-15 22:50:00,25.7,19.2,30.21,SSW,198,0.0,0.0,76,0.00,,,0.00,WeatherCatV1.11B39,2013-01-16 03:50:00,
2013-01-15 22:55:00,25.7,19.2,30.22,SSW,198,0.0,0.0,76,0.00,,,0.00,WeatherCatV1.11B39,2013-01-16 03:55:00,
2013-01-15 23:00:00,25.7,19.2,30.22,SSW,198,0.0,0.0,76,0.00,,,0.00,WeatherCatV1.11B39,2013-01-16 04:00:00,
2013-01-15 23:05:00,25.7,19.5,30.21,SSW,198,0.0,0.0,77,0.00,,,0.00,WeatherCatV1.11B39,2013-01-16 04:05:00,
2013-01-15 23:10:00,25.8,19.3,30.21,SSW,198,0.0,0.0,76,0.00,,,0.00,WeatherCatV1.11B39,2013-01-16 04:10:00,
2013-01-15 23:15:00,25.8,19.3,30.21,SSW,198,0.0,0.0,76,0.00,,,0.00,WeatherCatV1.11B39,2013-01-16 04:15:00,
2013-01-15 23:20:00,25.8,19.6,30.22,SSW,198,0.0,0.0,77,0.00,,,0.00,WeatherCatV1.11B39,2013-01-16 04:20:00,
2013-01-15 23:25:00,25.7,19.5,30.22,SSW,198,0.0,0.0,77,0.00,,,0.00,WeatherCatV1.11B39,2013-01-16 04:25:00,
2013-01-15 23:30:00,25.7,19.8,30.22,SSW,198,0.0,0.0,78,0.00,,,0.00,WeatherCatV1.11B39,2013-01-16 04:30:00,
2013-01-15 23:35:00,25.6,19.4,30.22,SSW,198,0.0,0.0,77,0.00,,,0.00,WeatherCatV1.11B39,2013-01-16 04:35:00,
2013-01-15 23:40:00,25.6,19.4,30.21,SSW,198,0.0,0.0,77,0.00,,,0.00,WeatherCatV1.11B39,2013-01-16 04:40:00,
2013-01-15 23:45:00,25.5,19.3,30.21,SSW,198,0.0,0.0,77,0.00,,,0.00,WeatherCatV1.11B39,2013-01-16 04:45:00,
2013-01-15 23:50:00,25.5,19.3,30.21,SSW,198,0.0,0.0,77,0.00,,,0.00,WeatherCatV1.11B39,2013-01-16 04:50:00,
2013-01-15 23:55:00,25.4,19.2,30.21,SSW,198,0.0,0.0,77,0.00,,,0.00,WeatherCatV1.11B39,2013-01-16 04:55:00,